sensor_id;sensor_type;location;lat;lon;timestamp;temperature;humidity
18291;DHT22;9271;48.590;8.866;2024-03-08T00:00:04;5.30;99.90
18291;DHT22;9271;48.590;8.866;2024-03-08T00:02:35;5.00;99.90
18291;DHT22;9271;48.590;8.866;2024-03-08T00:05:02;5.00;99.90
18291;DHT22;9271;48.590;8.866;2024-03-08T00:07:30;5.10;99.90
18291;DHT22;9271;48.590;8.866;2024-03-08T00:09:57;5.10;99.90
18291;DHT22;9271;48.590;8.866;2024-03-08T00:12:23;5.10;99.90
18291;DHT22;9271;48.590;8.866;2024-03-08T00:14:51;5.00;99.90
18291;DHT22;9271;48.590;8.866;2024-03-08T00:17:17;4.90;99.90
18291;DHT22;9271;48.590;8.866;2024-03-08T00:19:44;4.90;99.90
18291;DHT22;9271;48.590;8.866;2024-03-08T00:22:11;4.80;99.90
18291;DHT22;9271;48.590;8.866;2024-03-08T00:24:39;4.80;99.90
18291;DHT22;9271;48.590;8.866;2024-03-08T00:27:05;4.80;99.90
18291;DHT22;9271;48.590;8.866;2024-03-08T00:29:32;4.70;99.90
18291;DHT22;9271;48.590;8.866;2024-03-08T00:31:59;4.60;99.90
18291;DHT22;9271;48.590;8.866;2024-03-08T00:34:26;4.50;99.90
18291;DHT22;9271;48.590;8.866;2024-03-08T00:36:53;4.40;99.90
18291;DHT22;9271;48.590;8.866;2024-03-08T00:39:19;4.30;99.90
18291;DHT22;9271;48.590;8.866;2024-03-08T00:41:48;4.20;99.90
18291;DHT22;9271;48.590;8.866;2024-03-08T00:44:14;4.00;99.90
18291;DHT22;9271;48.590;8.866;2024-03-08T00:46:41;4.10;99.90
18291;DHT22;9271;48.590;8.866;2024-03-08T00:49:08;4.20;99.90
18291;DHT22;9271;48.590;8.866;2024-03-08T00:51:35;4.20;99.90
18291;DHT22;9271;48.590;8.866;2024-03-08T00:54:01;4.10;99.90
18291;DHT22;9271;48.590;8.866;2024-03-08T00:56:28;4.00;99.90
18291;DHT22;9271;48.590;8.866;2024-03-08T00:58:56;4.10;99.90
18291;DHT22;9271;48.590;8.866;2024-03-08T01:01:22;4.20;99.90
18291;DHT22;9271;48.590;8.866;2024-03-08T01:03:50;3.90;99.90
18291;DHT22;9271;48.590;8.866;2024-03-08T01:06:16;3.80;99.90
18291;DHT22;9271;48.590;8.866;2024-03-08T01:08:44;3.70;99.90
18291;DHT22;9271;48.590;8.866;2024-03-08T01:11:12;3.60;99.90
18291;DHT22;9271;48.590;8.866;2024-03-08T01:13:39;3.60;99.90
18291;DHT22;9271;48.590;8.866;2024-03-08T01:16:07;3.60;99.90
18291;DHT22;9271;48.590;8.866;2024-03-08T01:18:34;3.40;99.90
18291;DHT22;9271;48.590;8.866;2024-03-08T01:21:00;3.50;99.90
18291;DHT22;9271;48.590;8.866;2024-03-08T01:23:27;3.40;99.90
18291;DHT22;9271;48.590;8.866;2024-03-08T01:25:54;3.40;99.90
18291;DHT22;9271;48.590;8.866;2024-03-08T01:28:23;3.50;99.90
18291;DHT22;9271;48.590;8.866;2024-03-08T01:30:50;3.40;99.90
18291;DHT22;9271;48.590;8.866;2024-03-08T01:33:22;3.40;99.90
18291;DHT22;9271;48.590;8.866;2024-03-08T01:35:49;3.10;99.90
18291;DHT22;9271;48.590;8.866;2024-03-08T01:38:15;2.80;99.90
18291;DHT22;9271;48.590;8.866;2024-03-08T01:40:42;2.90;99.90
18291;DHT22;9271;48.590;8.866;2024-03-08T01:43:20;3.20;99.90
18291;DHT22;9271;48.590;8.866;2024-03-08T01:45:46;3.30;99.90
18291;DHT22;9271;48.590;8.866;2024-03-08T01:48:14;3.20;99.90
18291;DHT22;9271;48.590;8.866;2024-03-08T01:50:42;3.20;99.90
18291;DHT22;9271;48.590;8.866;2024-03-08T01:53:10;3.10;99.90
18291;DHT22;9271;48.590;8.866;2024-03-08T01:55:37;2.90;99.90
18291;DHT22;9271;48.590;8.866;2024-03-08T01:58:05;2.90;99.90
18291;DHT22;9271;48.590;8.866;2024-03-08T02:00:32;2.90;99.90
18291;DHT22;9271;48.590;8.866;2024-03-08T02:03:00;3.10;99.90
18291;DHT22;9271;48.590;8.866;2024-03-08T02:05:28;3.00;99.90
18291;DHT22;9271;48.590;8.866;2024-03-08T02:07:56;3.00;99.90
18291;DHT22;9271;48.590;8.866;2024-03-08T02:10:22;2.90;99.90
18291;DHT22;9271;48.590;8.866;2024-03-08T02:12:49;3.00;99.90
18291;DHT22;9271;48.590;8.866;2024-03-08T02:15:16;3.00;99.90
18291;DHT22;9271;48.590;8.866;2024-03-08T02:17:42;2.90;99.90
18291;DHT22;9271;48.590;8.866;2024-03-08T02:20:10;2.90;99.90
18291;DHT22;9271;48.590;8.866;2024-03-08T02:22:40;2.90;99.90
18291;DHT22;9271;48.590;8.866;2024-03-08T02:25:08;2.80;99.90
18291;DHT22;9271;48.590;8.866;2024-03-08T02:27:34;2.90;99.90
18291;DHT22;9271;48.590;8.866;2024-03-08T02:30:01;2.90;99.90
18291;DHT22;9271;48.590;8.866;2024-03-08T02:32:28;2.90;99.90
18291;DHT22;9271;48.590;8.866;2024-03-08T02:34:56;2.80;99.90
18291;DHT22;9271;48.590;8.866;2024-03-08T02:37:25;2.70;99.90
18291;DHT22;9271;48.590;8.866;2024-03-08T02:39:55;2.70;99.90
18291;DHT22;9271;48.590;8.866;2024-03-08T02:42:22;2.70;99.90
18291;DHT22;9271;48.590;8.866;2024-03-08T02:44:48;2.70;99.90
18291;DHT22;9271;48.590;8.866;2024-03-08T02:47:15;2.70;99.90
18291;DHT22;9271;48.590;8.866;2024-03-08T02:49:41;2.70;99.90
18291;DHT22;9271;48.590;8.866;2024-03-08T02:52:08;2.80;99.90
18291;DHT22;9271;48.590;8.866;2024-03-08T02:54:35;2.60;99.90
18291;DHT22;9271;48.590;8.866;2024-03-08T02:57:03;2.40;99.90
18291;DHT22;9271;48.590;8.866;2024-03-08T02:59:32;2.40;99.90
18291;DHT22;9271;48.590;8.866;2024-03-08T03:01:59;2.30;99.90
18291;DHT22;9271;48.590;8.866;2024-03-08T03:04:25;2.40;99.90
18291;DHT22;9271;48.590;8.866;2024-03-08T03:06:53;2.50;99.90
18291;DHT22;9271;48.590;8.866;2024-03-08T03:09:20;2.50;99.90
18291;DHT22;9271;48.590;8.866;2024-03-08T03:11:49;2.50;99.90
18291;DHT22;9271;48.590;8.866;2024-03-08T03:14:17;2.60;99.90
18291;DHT22;9271;48.590;8.866;2024-03-08T03:16:44;2.50;99.90
18291;DHT22;9271;48.590;8.866;2024-03-08T03:19:11;2.60;99.90
18291;DHT22;9271;48.590;8.866;2024-03-08T03:21:38;2.60;99.90
18291;DHT22;9271;48.590;8.866;2024-03-08T03:24:05;2.40;99.90
18291;DHT22;9271;48.590;8.866;2024-03-08T03:26:35;2.50;99.90
18291;DHT22;9271;48.590;8.866;2024-03-08T03:29:03;2.40;99.90
18291;DHT22;9271;48.590;8.866;2024-03-08T03:31:32;2.20;99.90
18291;DHT22;9271;48.590;8.866;2024-03-08T03:33:59;2.30;99.90
18291;DHT22;9271;48.590;8.866;2024-03-08T03:36:28;2.30;99.90
18291;DHT22;9271;48.590;8.866;2024-03-08T03:38:55;2.40;99.90
18291;DHT22;9271;48.590;8.866;2024-03-08T03:41:30;2.40;99.90
18291;DHT22;9271;48.590;8.866;2024-03-08T03:43:57;2.50;99.90
18291;DHT22;9271;48.590;8.866;2024-03-08T03:46:24;2.40;99.90
18291;DHT22;9271;48.590;8.866;2024-03-08T03:48:53;2.30;99.90
18291;DHT22;9271;48.590;8.866;2024-03-08T03:51:20;2.30;99.90
18291;DHT22;9271;48.590;8.866;2024-03-08T03:53:47;2.20;99.90
18291;DHT22;9271;48.590;8.866;2024-03-08T03:56:14;2.20;99.90
18291;DHT22;9271;48.590;8.866;2024-03-08T03:58:40;2.20;99.90
18291;DHT22;9271;48.590;8.866;2024-03-08T04:01:08;2.20;99.90
18291;DHT22;9271;48.590;8.866;2024-03-08T04:03:35;2.20;99.90
18291;DHT22;9271;48.590;8.866;2024-03-08T04:06:03;2.20;99.90
18291;DHT22;9271;48.590;8.866;2024-03-08T04:08:30;2.20;99.90
18291;DHT22;9271;48.590;8.866;2024-03-08T04:10:59;2.30;99.90
18291;DHT22;9271;48.590;8.866;2024-03-08T04:13:26;2.20;99.90
18291;DHT22;9271;48.590;8.866;2024-03-08T04:15:53;2.20;99.90
18291;DHT22;9271;48.590;8.866;2024-03-08T04:18:19;2.00;99.90
18291;DHT22;9271;48.590;8.866;2024-03-08T04:20:46;2.00;99.90
18291;DHT22;9271;48.590;8.866;2024-03-08T04:23:14;2.10;99.90
18291;DHT22;9271;48.590;8.866;2024-03-08T04:25:41;2.10;99.90
18291;DHT22;9271;48.590;8.866;2024-03-08T04:28:08;2.20;99.90
18291;DHT22;9271;48.590;8.866;2024-03-08T04:30:37;2.10;99.90
18291;DHT22;9271;48.590;8.866;2024-03-08T04:33:05;2.10;99.90
18291;DHT22;9271;48.590;8.866;2024-03-08T04:35:32;2.00;99.90
18291;DHT22;9271;48.590;8.866;2024-03-08T04:37:59;2.00;99.90
18291;DHT22;9271;48.590;8.866;2024-03-08T04:40:27;2.10;99.90
18291;DHT22;9271;48.590;8.866;2024-03-08T04:42:53;2.10;99.90
18291;DHT22;9271;48.590;8.866;2024-03-08T04:45:20;2.10;99.90
18291;DHT22;9271;48.590;8.866;2024-03-08T04:47:47;2.00;99.90
18291;DHT22;9271;48.590;8.866;2024-03-08T04:50:13;2.00;99.90
18291;DHT22;9271;48.590;8.866;2024-03-08T04:52:40;1.90;99.90
18291;DHT22;9271;48.590;8.866;2024-03-08T04:55:07;2.00;99.90
18291;DHT22;9271;48.590;8.866;2024-03-08T04:57:35;1.90;99.90
18291;DHT22;9271;48.590;8.866;2024-03-08T05:00:02;1.90;99.90
18291;DHT22;9271;48.590;8.866;2024-03-08T05:02:29;1.90;99.90
18291;DHT22;9271;48.590;8.866;2024-03-08T05:04:57;1.90;99.90
18291;DHT22;9271;48.590;8.866;2024-03-08T05:07:24;1.80;99.90
18291;DHT22;9271;48.590;8.866;2024-03-08T05:09:51;1.90;99.90
18291;DHT22;9271;48.590;8.866;2024-03-08T05:12:18;1.90;99.90
18291;DHT22;9271;48.590;8.866;2024-03-08T05:14:46;2.00;99.90
18291;DHT22;9271;48.590;8.866;2024-03-08T05:17:15;2.10;99.90
18291;DHT22;9271;48.590;8.866;2024-03-08T05:19:41;2.30;99.90
18291;DHT22;9271;48.590;8.866;2024-03-08T05:22:08;2.30;99.90
18291;DHT22;9271;48.590;8.866;2024-03-08T05:24:35;2.50;99.90
18291;DHT22;9271;48.590;8.866;2024-03-08T05:27:02;2.70;99.90
18291;DHT22;9271;48.590;8.866;2024-03-08T05:29:28;2.80;99.90
18291;DHT22;9271;48.590;8.866;2024-03-08T05:31:56;2.90;99.90
18291;DHT22;9271;48.590;8.866;2024-03-08T05:34:24;3.10;99.90
18291;DHT22;9271;48.590;8.866;2024-03-08T05:36:51;3.20;99.90
18291;DHT22;9271;48.590;8.866;2024-03-08T05:39:20;3.10;99.90
18291;DHT22;9271;48.590;8.866;2024-03-08T05:41:46;3.30;99.90
18291;DHT22;9271;48.590;8.866;2024-03-08T05:44:13;3.40;99.90
18291;DHT22;9271;48.590;8.866;2024-03-08T05:46:42;3.50;99.90
18291;DHT22;9271;48.590;8.866;2024-03-08T05:49:10;3.60;99.90
18291;DHT22;9271;48.590;8.866;2024-03-08T05:51:38;3.80;99.90
18291;DHT22;9271;48.590;8.866;2024-03-08T05:54:06;3.80;99.90
18291;DHT22;9271;48.590;8.866;2024-03-08T05:56:36;3.90;99.90
18291;DHT22;9271;48.590;8.866;2024-03-08T05:59:03;4.00;99.90
18291;DHT22;9271;48.590;8.866;2024-03-08T06:01:30;4.10;99.90
18291;DHT22;9271;48.590;8.866;2024-03-08T06:03:57;4.10;99.90
18291;DHT22;9271;48.590;8.866;2024-03-08T06:06:26;4.10;99.90
18291;DHT22;9271;48.590;8.866;2024-03-08T06:08:52;4.10;99.90
18291;DHT22;9271;48.590;8.866;2024-03-08T06:11:22;4.10;99.90
18291;DHT22;9271;48.590;8.866;2024-03-08T06:13:49;4.20;99.90
18291;DHT22;9271;48.590;8.866;2024-03-08T06:16:16;4.30;99.90
18291;DHT22;9271;48.590;8.866;2024-03-08T06:18:42;4.30;99.90
18291;DHT22;9271;48.590;8.866;2024-03-08T06:21:09;4.40;99.90
18291;DHT22;9271;48.590;8.866;2024-03-08T06:23:38;4.50;99.90
18291;DHT22;9271;48.590;8.866;2024-03-08T06:26:05;4.60;99.90
18291;DHT22;9271;48.590;8.866;2024-03-08T06:28:32;4.70;99.90
18291;DHT22;9271;48.590;8.866;2024-03-08T06:31:00;4.90;99.90
18291;DHT22;9271;48.590;8.866;2024-03-08T06:33:27;4.70;99.90
18291;DHT22;9271;48.590;8.866;2024-03-08T06:35:54;4.70;99.90
18291;DHT22;9271;48.590;8.866;2024-03-08T06:38:22;4.60;99.90
18291;DHT22;9271;48.590;8.866;2024-03-08T06:40:50;4.60;99.90
18291;DHT22;9271;48.590;8.866;2024-03-08T06:43:17;4.90;99.90
18291;DHT22;9271;48.590;8.866;2024-03-08T06:45:44;4.90;99.90
18291;DHT22;9271;48.590;8.866;2024-03-08T06:48:14;5.10;99.90
18291;DHT22;9271;48.590;8.866;2024-03-08T06:50:40;5.30;99.90
18291;DHT22;9271;48.590;8.866;2024-03-08T06:53:07;5.50;99.90
18291;DHT22;9271;48.590;8.866;2024-03-08T06:55:33;5.50;99.90
18291;DHT22;9271;48.590;8.866;2024-03-08T06:58:02;5.70;99.90
18291;DHT22;9271;48.590;8.866;2024-03-08T07:00:28;5.80;99.90
18291;DHT22;9271;48.590;8.866;2024-03-08T07:02:55;5.90;99.90
18291;DHT22;9271;48.590;8.866;2024-03-08T07:05:26;5.80;99.90
18291;DHT22;9271;48.590;8.866;2024-03-08T07:07:52;5.60;99.90
18291;DHT22;9271;48.590;8.866;2024-03-08T07:10:20;5.50;99.90
18291;DHT22;9271;48.590;8.866;2024-03-08T07:12:49;5.00;99.90
18291;DHT22;9271;48.590;8.866;2024-03-08T07:15:17;5.10;99.90
18291;DHT22;9271;48.590;8.866;2024-03-08T07:17:45;5.60;99.90
18291;DHT22;9271;48.590;8.866;2024-03-08T07:20:12;5.80;99.90
18291;DHT22;9271;48.590;8.866;2024-03-08T07:22:41;6.10;99.90
18291;DHT22;9271;48.590;8.866;2024-03-08T07:25:08;6.40;99.90
18291;DHT22;9271;48.590;8.866;2024-03-08T07:27:46;6.40;99.90
18291;DHT22;9271;48.590;8.866;2024-03-08T07:30:13;6.30;99.90
18291;DHT22;9271;48.590;8.866;2024-03-08T07:33:01;6.40;99.90
18291;DHT22;9271;48.590;8.866;2024-03-08T07:35:27;6.50;99.90
18291;DHT22;9271;48.590;8.866;2024-03-08T07:37:54;6.50;99.90
18291;DHT22;9271;48.590;8.866;2024-03-08T07:40:21;6.30;99.90
18291;DHT22;9271;48.590;8.866;2024-03-08T07:42:48;6.60;99.90
18291;DHT22;9271;48.590;8.866;2024-03-08T07:45:15;6.60;99.90
18291;DHT22;9271;48.590;8.866;2024-03-08T07:47:42;6.60;99.90
18291;DHT22;9271;48.590;8.866;2024-03-08T07:50:10;6.70;99.90
18291;DHT22;9271;48.590;8.866;2024-03-08T07:52:41;6.80;99.90
18291;DHT22;9271;48.590;8.866;2024-03-08T07:55:08;6.80;99.90
18291;DHT22;9271;48.590;8.866;2024-03-08T07:57:35;6.60;99.90
18291;DHT22;9271;48.590;8.866;2024-03-08T08:00:04;6.70;99.90
18291;DHT22;9271;48.590;8.866;2024-03-08T08:02:32;6.80;99.90
18291;DHT22;9271;48.590;8.866;2024-03-08T08:04:59;7.00;99.90
18291;DHT22;9271;48.590;8.866;2024-03-08T08:07:27;7.00;99.90
18291;DHT22;9271;48.590;8.866;2024-03-08T08:09:54;7.00;99.90
18291;DHT22;9271;48.590;8.866;2024-03-08T08:12:20;7.00;99.90
18291;DHT22;9271;48.590;8.866;2024-03-08T08:14:47;6.90;99.90
18291;DHT22;9271;48.590;8.866;2024-03-08T08:17:14;7.10;99.90
18291;DHT22;9271;48.590;8.866;2024-03-08T08:19:41;7.30;99.90
18291;DHT22;9271;48.590;8.866;2024-03-08T08:22:08;7.50;99.90
18291;DHT22;9271;48.590;8.866;2024-03-08T08:24:36;7.70;99.90
18291;DHT22;9271;48.590;8.866;2024-03-08T08:27:03;7.50;99.90
18291;DHT22;9271;48.590;8.866;2024-03-08T08:29:30;7.40;99.90
18291;DHT22;9271;48.590;8.866;2024-03-08T08:31:58;7.50;99.90
18291;DHT22;9271;48.590;8.866;2024-03-08T08:34:25;7.50;99.90
18291;DHT22;9271;48.590;8.866;2024-03-08T08:36:52;7.20;99.90
18291;DHT22;9271;48.590;8.866;2024-03-08T08:39:19;7.00;99.90
18291;DHT22;9271;48.590;8.866;2024-03-08T08:41:49;7.00;99.90
18291;DHT22;9271;48.590;8.866;2024-03-08T08:44:16;7.00;99.90
18291;DHT22;9271;48.590;8.866;2024-03-08T08:46:42;7.00;99.90
18291;DHT22;9271;48.590;8.866;2024-03-08T08:49:09;7.00;99.90
18291;DHT22;9271;48.590;8.866;2024-03-08T08:51:39;6.80;99.90
18291;DHT22;9271;48.590;8.866;2024-03-08T08:54:06;6.80;99.90
18291;DHT22;9271;48.590;8.866;2024-03-08T08:56:33;6.80;99.90
18291;DHT22;9271;48.590;8.866;2024-03-08T08:59:01;7.10;99.90
18291;DHT22;9271;48.590;8.866;2024-03-08T09:01:29;7.20;99.90
18291;DHT22;9271;48.590;8.866;2024-03-08T09:03:56;7.10;99.90
18291;DHT22;9271;48.590;8.866;2024-03-08T09:06:22;7.30;99.90
18291;DHT22;9271;48.590;8.866;2024-03-08T09:08:50;7.50;99.90
18291;DHT22;9271;48.590;8.866;2024-03-08T09:11:18;7.20;99.90
18291;DHT22;9271;48.590;8.866;2024-03-08T09:13:45;6.90;99.90
18291;DHT22;9271;48.590;8.866;2024-03-08T09:16:13;6.90;99.90
18291;DHT22;9271;48.590;8.866;2024-03-08T09:18:41;6.90;99.90
18291;DHT22;9271;48.590;8.866;2024-03-08T09:21:08;7.00;99.90
18291;DHT22;9271;48.590;8.866;2024-03-08T09:23:35;6.90;99.90
18291;DHT22;9271;48.590;8.866;2024-03-08T09:26:02;7.00;99.90
18291;DHT22;9271;48.590;8.866;2024-03-08T09:28:29;6.80;99.90
18291;DHT22;9271;48.590;8.866;2024-03-08T09:30:56;6.80;99.90
18291;DHT22;9271;48.590;8.866;2024-03-08T09:33:25;7.00;99.90
18291;DHT22;9271;48.590;8.866;2024-03-08T09:35:54;7.10;99.90
18291;DHT22;9271;48.590;8.866;2024-03-08T09:38:23;7.10;99.90
18291;DHT22;9271;48.590;8.866;2024-03-08T09:40:50;7.40;99.90
18291;DHT22;9271;48.590;8.866;2024-03-08T09:43:17;7.60;99.90
18291;DHT22;9271;48.590;8.866;2024-03-08T09:45:45;7.80;99.90
18291;DHT22;9271;48.590;8.866;2024-03-08T09:48:12;7.80;99.90
18291;DHT22;9271;48.590;8.866;2024-03-08T09:50:40;7.90;99.90
18291;DHT22;9271;48.590;8.866;2024-03-08T09:53:07;8.30;99.80
18291;DHT22;9271;48.590;8.866;2024-03-08T09:55:35;8.00;99.90
18291;DHT22;9271;48.590;8.866;2024-03-08T09:58:05;7.90;99.90
18291;DHT22;9271;48.590;8.866;2024-03-08T10:01:02;7.70;99.90
18291;DHT22;9271;48.590;8.866;2024-03-08T10:03:30;7.60;99.90
18291;DHT22;9271;48.590;8.866;2024-03-08T10:05:59;7.70;99.80
18291;DHT22;9271;48.590;8.866;2024-03-08T10:08:26;7.70;99.90
18291;DHT22;9271;48.590;8.866;2024-03-08T10:10:54;7.50;99.90
18291;DHT22;9271;48.590;8.866;2024-03-08T10:13:24;7.40;99.90
18291;DHT22;9271;48.590;8.866;2024-03-08T10:15:52;7.50;99.90
18291;DHT22;9271;48.590;8.866;2024-03-08T10:18:19;7.50;99.90
18291;DHT22;9271;48.590;8.866;2024-03-08T10:20:47;7.60;99.90
18291;DHT22;9271;48.590;8.866;2024-03-08T10:23:30;7.70;99.60
18291;DHT22;9271;48.590;8.866;2024-03-08T10:25:57;8.00;99.80
18291;DHT22;9271;48.590;8.866;2024-03-08T10:28:24;8.10;99.70
18291;DHT22;9271;48.590;8.866;2024-03-08T10:30:51;8.20;99.40
18291;DHT22;9271;48.590;8.866;2024-03-08T10:33:17;7.80;99.50
18291;DHT22;9271;48.590;8.866;2024-03-08T10:35:44;7.90;99.40
18291;DHT22;9271;48.590;8.866;2024-03-08T10:38:14;7.80;99.20
18291;DHT22;9271;48.590;8.866;2024-03-08T10:40:46;8.20;99.70
18291;DHT22;9271;48.590;8.866;2024-03-08T10:43:23;8.50;99.40
18291;DHT22;9271;48.590;8.866;2024-03-08T10:45:59;8.90;98.90
18291;DHT22;9271;48.590;8.866;2024-03-08T10:48:31;8.90;98.20
18291;DHT22;9271;48.590;8.866;2024-03-08T10:50:59;8.60;98.60
18291;DHT22;9271;48.590;8.866;2024-03-08T10:53:27;8.60;98.80
18291;DHT22;9271;48.590;8.866;2024-03-08T10:55:56;8.80;99.10
18291;DHT22;9271;48.590;8.866;2024-03-08T10:58:24;9.10;97.90
18291;DHT22;9271;48.590;8.866;2024-03-08T11:00:52;8.80;97.60
18291;DHT22;9271;48.590;8.866;2024-03-08T11:03:45;8.50;98.60
18291;DHT22;9271;48.590;8.866;2024-03-08T11:06:16;8.20;99.20
18291;DHT22;9271;48.590;8.866;2024-03-08T11:08:43;8.40;99.20
18291;DHT22;9271;48.590;8.866;2024-03-08T11:11:28;8.80;98.40
18291;DHT22;9271;48.590;8.866;2024-03-08T11:13:56;8.50;98.90
18291;DHT22;9271;48.590;8.866;2024-03-08T11:16:39;8.70;98.90
18291;DHT22;9271;48.590;8.866;2024-03-08T11:19:24;9.10;97.90
18291;DHT22;9271;48.590;8.866;2024-03-08T11:21:57;9.40;97.40
18291;DHT22;9271;48.590;8.866;2024-03-08T11:24:24;10.10;96.80
18291;DHT22;9271;48.590;8.866;2024-03-08T11:26:57;10.40;95.50
18291;DHT22;9271;48.590;8.866;2024-03-08T11:29:35;10.50;95.20
18291;DHT22;9271;48.590;8.866;2024-03-08T11:32:04;10.10;95.10
18291;DHT22;9271;48.590;8.866;2024-03-08T11:34:32;10.30;95.40
18291;DHT22;9271;48.590;8.866;2024-03-08T11:36:59;10.50;95.60
18291;DHT22;9271;48.590;8.866;2024-03-08T11:39:26;10.30;95.40
18291;DHT22;9271;48.590;8.866;2024-03-08T11:41:55;10.80;95.30
18291;DHT22;9271;48.590;8.866;2024-03-08T11:44:26;11.80;93.80
18291;DHT22;9271;48.590;8.866;2024-03-08T11:46:54;12.20;92.50
18291;DHT22;9271;48.590;8.866;2024-03-08T11:49:20;12.70;92.00
18291;DHT22;9271;48.590;8.866;2024-03-08T11:51:51;14.10;90.20
18291;DHT22;9271;48.590;8.866;2024-03-08T11:54:18;15.10;85.10
18291;DHT22;9271;48.590;8.866;2024-03-08T11:56:45;14.90;85.40
18291;DHT22;9271;48.590;8.866;2024-03-08T11:59:14;14.70;85.60
18291;DHT22;9271;48.590;8.866;2024-03-08T12:01:43;14.60;84.60
18291;DHT22;9271;48.590;8.866;2024-03-08T12:04:12;14.10;85.20
18291;DHT22;9271;48.590;8.866;2024-03-08T12:06:39;13.10;88.10
18291;DHT22;9271;48.590;8.866;2024-03-08T12:09:08;12.60;88.90
18291;DHT22;9271;48.590;8.866;2024-03-08T12:11:36;12.70;88.70
18291;DHT22;9271;48.590;8.866;2024-03-08T12:14:02;14.50;87.30
18291;DHT22;9271;48.590;8.866;2024-03-08T12:16:31;17.20;81.70
18291;DHT22;9271;48.590;8.866;2024-03-08T12:18:57;20.10;71.30
18291;DHT22;9271;48.590;8.866;2024-03-08T12:21:26;22.80;60.90
18291;DHT22;9271;48.590;8.866;2024-03-08T12:24:05;22.50;56.60
18291;DHT22;9271;48.590;8.866;2024-03-08T12:26:35;23.80;51.90
18291;DHT22;9271;48.590;8.866;2024-03-08T12:29:15;24.40;51.20
18291;DHT22;9271;48.590;8.866;2024-03-08T12:31:44;24.40;47.90
18291;DHT22;9271;48.590;8.866;2024-03-08T12:34:13;25.50;45.60
18291;DHT22;9271;48.590;8.866;2024-03-08T12:36:45;26.00;44.90
18291;DHT22;9271;48.590;8.866;2024-03-08T12:39:15;26.10;42.70
18291;DHT22;9271;48.590;8.866;2024-03-08T12:41:42;26.30;42.80
18291;DHT22;9271;48.590;8.866;2024-03-08T12:44:09;27.90;40.70
18291;DHT22;9271;48.590;8.866;2024-03-08T12:46:37;26.90;38.60
18291;DHT22;9271;48.590;8.866;2024-03-08T12:49:07;25.40;40.20
18291;DHT22;9271;48.590;8.866;2024-03-08T12:51:34;25.80;41.00
18291;DHT22;9271;48.590;8.866;2024-03-08T12:54:02;25.90;41.00
18291;DHT22;9271;48.590;8.866;2024-03-08T12:56:30;26.40;38.00
18291;DHT22;9271;48.590;8.866;2024-03-08T12:58:58;24.10;42.00
18291;DHT22;9271;48.590;8.866;2024-03-08T13:01:25;24.10;41.40
18291;DHT22;9271;48.590;8.866;2024-03-08T13:03:52;22.90;42.20
18291;DHT22;9271;48.590;8.866;2024-03-08T13:06:20;22.10;44.90
18291;DHT22;9271;48.590;8.866;2024-03-08T13:08:50;22.70;44.90
18291;DHT22;9271;48.590;8.866;2024-03-08T13:11:17;24.40;43.00
18291;DHT22;9271;48.590;8.866;2024-03-08T13:13:45;24.80;41.40
18291;DHT22;9271;48.590;8.866;2024-03-08T13:16:12;24.70;41.60
18291;DHT22;9271;48.590;8.866;2024-03-08T13:18:40;24.40;41.20
18291;DHT22;9271;48.590;8.866;2024-03-08T13:21:08;25.00;41.00
18291;DHT22;9271;48.590;8.866;2024-03-08T13:23:37;25.20;41.10
18291;DHT22;9271;48.590;8.866;2024-03-08T13:26:05;26.10;40.00
18291;DHT22;9271;48.590;8.866;2024-03-08T13:28:33;25.90;39.50
18291;DHT22;9271;48.590;8.866;2024-03-08T13:31:03;25.60;41.30
18291;DHT22;9271;48.590;8.866;2024-03-08T13:33:32;25.60;41.70
18291;DHT22;9271;48.590;8.866;2024-03-08T13:36:01;26.20;39.40
18291;DHT22;9271;48.590;8.866;2024-03-08T13:38:29;25.40;40.60
18291;DHT22;9271;48.590;8.866;2024-03-08T13:40:58;25.10;41.10
18291;DHT22;9271;48.590;8.866;2024-03-08T13:43:25;25.30;39.60
18291;DHT22;9271;48.590;8.866;2024-03-08T13:45:54;25.70;39.10
18291;DHT22;9271;48.590;8.866;2024-03-08T13:48:21;26.20;39.90
18291;DHT22;9271;48.590;8.866;2024-03-08T13:50:48;26.40;38.50
18291;DHT22;9271;48.590;8.866;2024-03-08T13:53:15;26.80;37.90
18291;DHT22;9271;48.590;8.866;2024-03-08T13:55:42;27.10;37.90
18291;DHT22;9271;48.590;8.866;2024-03-08T13:58:10;27.10;36.70
18291;DHT22;9271;48.590;8.866;2024-03-08T14:00:39;25.40;38.80
18291;DHT22;9271;48.590;8.866;2024-03-08T14:03:09;24.70;39.90
18291;DHT22;9271;48.590;8.866;2024-03-08T14:05:38;24.60;38.70
18291;DHT22;9271;48.590;8.866;2024-03-08T14:08:06;23.90;41.40
18291;DHT22;9271;48.590;8.866;2024-03-08T14:10:33;25.00;39.40
18291;DHT22;9271;48.590;8.866;2024-03-08T14:13:00;25.00;39.30
18291;DHT22;9271;48.590;8.866;2024-03-08T14:15:29;24.60;38.80
18291;DHT22;9271;48.590;8.866;2024-03-08T14:17:56;24.00;39.60
18291;DHT22;9271;48.590;8.866;2024-03-08T14:20:23;22.60;39.70
18291;DHT22;9271;48.590;8.866;2024-03-08T14:22:51;22.10;41.70
18291;DHT22;9271;48.590;8.866;2024-03-08T14:25:17;22.10;42.10
18291;DHT22;9271;48.590;8.866;2024-03-08T14:27:44;22.70;41.90
18291;DHT22;9271;48.590;8.866;2024-03-08T14:30:12;23.40;39.70
18291;DHT22;9271;48.590;8.866;2024-03-08T14:32:40;23.40;40.00
18291;DHT22;9271;48.590;8.866;2024-03-08T14:35:07;23.90;41.00
18291;DHT22;9271;48.590;8.866;2024-03-08T14:37:36;24.70;40.40
18291;DHT22;9271;48.590;8.866;2024-03-08T14:40:03;25.10;39.50
18291;DHT22;9271;48.590;8.866;2024-03-08T14:42:31;25.30;39.20
18291;DHT22;9271;48.590;8.866;2024-03-08T14:44:58;24.40;39.10
18291;DHT22;9271;48.590;8.866;2024-03-08T14:47:25;24.40;40.10
18291;DHT22;9271;48.590;8.866;2024-03-08T14:49:53;23.90;40.10
18291;DHT22;9271;48.590;8.866;2024-03-08T14:52:20;24.50;40.60
18291;DHT22;9271;48.590;8.866;2024-03-08T14:54:53;24.80;39.40
18291;DHT22;9271;48.590;8.866;2024-03-08T14:57:21;24.10;39.30
18291;DHT22;9271;48.590;8.866;2024-03-08T14:59:48;23.30;40.70
18291;DHT22;9271;48.590;8.866;2024-03-08T15:02:15;22.80;41.30
18291;DHT22;9271;48.590;8.866;2024-03-08T15:04:46;23.20;40.90
18291;DHT22;9271;48.590;8.866;2024-03-08T15:07:19;22.80;41.30
18291;DHT22;9271;48.590;8.866;2024-03-08T15:09:46;21.60;42.20
18291;DHT22;9271;48.590;8.866;2024-03-08T15:12:12;20.70;44.10
18291;DHT22;9271;48.590;8.866;2024-03-08T15:14:40;21.90;43.80
18291;DHT22;9271;48.590;8.866;2024-03-08T15:17:09;21.90;42.20
18291;DHT22;9271;48.590;8.866;2024-03-08T15:19:46;21.80;43.30
18291;DHT22;9271;48.590;8.866;2024-03-08T15:22:13;21.90;44.20
18291;DHT22;9271;48.590;8.866;2024-03-08T15:24:42;21.70;44.30
18291;DHT22;9271;48.590;8.866;2024-03-08T15:27:09;21.30;44.70
18291;DHT22;9271;48.590;8.866;2024-03-08T15:29:36;20.80;45.50
18291;DHT22;9271;48.590;8.866;2024-03-08T15:32:02;20.90;45.90
18291;DHT22;9271;48.590;8.866;2024-03-08T15:34:29;21.40;45.60
18291;DHT22;9271;48.590;8.866;2024-03-08T15:36:57;21.90;44.30
18291;DHT22;9271;48.590;8.866;2024-03-08T15:39:27;21.80;43.80
18291;DHT22;9271;48.590;8.866;2024-03-08T15:41:57;20.70;45.40
18291;DHT22;9271;48.590;8.866;2024-03-08T15:44:25;20.90;46.10
18291;DHT22;9271;48.590;8.866;2024-03-08T15:46:52;19.70;47.50
18291;DHT22;9271;48.590;8.866;2024-03-08T15:49:19;19.10;48.10
18291;DHT22;9271;48.590;8.866;2024-03-08T15:51:46;19.00;48.70
18291;DHT22;9271;48.590;8.866;2024-03-08T15:54:13;19.20;48.20
18291;DHT22;9271;48.590;8.866;2024-03-08T15:56:40;19.10;48.70
18291;DHT22;9271;48.590;8.866;2024-03-08T15:59:08;18.60;48.60
18291;DHT22;9271;48.590;8.866;2024-03-08T16:01:35;17.30;50.90